Flugplatz Uetersen/Heist

EDHE · Schleswig-Holstein, Allemagne

METAR anciennes EDHE · Uetersen/Heist Airport

Tu vois ci-dessous les METAR des derniers jours. Sélectionne une année pour parcourir les METAR plus anciens, à partir de l'année 2007.

9 décembre 2022

Temps Code Temps Temp. Vue Base cloud Vent METAR/SPECI
10:20
M
0 °C 10 km+ 2.700 ft 140° 140° 4 kt METAR EDHI 090920Z 14004KT 100V170 9999 BKN027 M00/M00 Q1007
09:50
M
0 °C 10 km+ 2.600 ft 140° 140° 4 kt METAR EDHI 090850Z 14004KT 110V170 9999 BKN026 M00/M01 Q1007
09:20
M
-1 °C 10 km+ 2.600 ft 140° 140° 4 kt METAR EDHI 090820Z 14004KT 9999 BKN026 M01/M01 Q1007
08:50
M
-1 °C 10 km+ 2.100 ft 150° 150° 4 kt METAR EDHI 090750Z 15004KT 9999 BKN021 M01/M01 Q1006
08:20
M
-1 °C 10 km+ 1.900 ft 150° 150° 3 kt METAR EDHI 090720Z 15003KT 120V190 9999 BKN019 M01/M01 Q1006
07:50
M
-1 °C 5 km 1.900 ft 160° 160° 3 kt METAR EDHI 090650Z 16003KT 130V190 5000 BR OVC019 M01/M01 Q1006
07:20
M
-1 °C 5 km 1.600 ft 160° 160° 4 kt METAR EDHI 090620Z 16004KT 110V210 5000 BR OVC016 M01/M01 Q1006
06:50
M
-1 °C 5 km 1.500 ft 160° 160° 4 kt METAR EDHI 090550Z 16004KT 5000 BR OVC015 M01/M01 Q1006
06:20
I
-1 °C 4,9 km 1.300 ft Var Var 2 kt METAR EDHI 090520Z VRB02KT 4900 BR BKN013 M01/M02 Q1006
05:50
M
-2 °C 5 km - 200° 200° 3 kt METAR EDHI 090450Z AUTO 20003KT 160V230 5000 // FEW012/// SCT014/// M02/M02 Q1006
05:20
I
-2 °C 4,3 km 1.300 ft 170° 170° 3 kt METAR EDHI 090420Z AUTO 17003KT 130V210 4300 // FEW004/// BKN013/// M02/M02 Q1006
04:50
L
-1 °C 4,2 km 300 ft 190° 190° 3 kt METAR EDHI 090350Z AUTO 19003KT 4200 // BKN003/// BKN015/// M01/M01 Q1006
04:20
L
0 °C 4,6 km 400 ft 210° 210° 6 kt METAR EDHI 090320Z AUTO 21006KT 180V240 4600 // OVC004/// M00/M01 Q1007
03:50
L
0 °C 4,3 km 400 ft 230° 230° 4 kt METAR EDHI 090250Z AUTO 23004KT 4300 // OVC004/// M00/M00 Q1007
03:20
L
0 °C 3,8 km 200 ft 220° 220° 4 kt METAR EDHI 090220Z AUTO 22004KT 160V260 3800 // BKN002/// OVC004/// M00/M00 Q1007
02:50
L
0 °C 1 km 200 ft 200° 200° 3 kt METAR EDHI 090150Z AUTO 20003KT 160V240 1100 1000 R23/1200U // VV002 M00/M00 Q1007
02:20
L
-1 °C 550 m 200 ft Var Var 2 kt METAR EDHI 090120Z AUTO VRB02KT 0550 R23/0600N // VV002 M01/M01 Q1007
01:50
L
-1 °C 600 m 200 ft 220° 220° 5 kt METAR EDHI 090050Z AUTO 22005KT 180V240 0600 R23/0700N // VV002 M01/M01 Q1007
01:20
L
-1 °C 500 m 200 ft 200° 200° 4 kt METAR EDHI 090020Z AUTO 20004KT 170V230 0500 R23/0600N // VV002 M01/M01 Q1007
00:50
L
-1 °C 400 m 200 ft 210° 210° 3 kt METAR EDHI 082350Z AUTO 21003KT 150V250 0450 0400 R23/0450N // VV002 M01/M01 Q1007
00:20
L
-1 °C 400 m 100 ft 210° 210° 3 kt METAR EDHI 082320Z AUTO 21003KT 170V240 0400 R23/0500N // VV001 M01/M02 Q1007

8 décembre 2022

Temps Code Temps Temp. Vue Base cloud Vent METAR/SPECI
23:50
L
-2 °C 400 m 100 ft Var Var 2 kt METAR EDHI 082250Z AUTO VRB02KT 0400 R23/0450D // VV001 M02/M02 Q1007
23:20
L
-2 °C 400 m 100 ft Var Var 2 kt METAR EDHI 082220Z AUTO VRB02KT 0400 R23/0400N // VV001 M02/M02 Q1007
22:50
L
-2 °C 300 m 100 ft Var Var 2 kt METAR EDHI 082150Z AUTO VRB02KT 0350 0300 R23/0400N // VV001 M02/M02 Q1007
22:20
L
-2 °C 300 m 100 ft 270° 270° 3 kt METAR EDHI 082120Z AUTO 27003KT 240V300 0300 R23/0375N // VV001 M02/M02 Q1006
21:50
L
-1 °C 350 m 100 ft 250° 250° 4 kt METAR EDHI 082050Z AUTO 25004KT 190V280 0350 R23/0400N // VV001 M01/M01 Q1006
21:20
L
-1 °C 350 m 100 ft 220° 220° 3 kt METAR EDHI 082020Z 22003KT 180V260 0350 R23/0400N FZFG VV001 M01/M01 Q1006
20:50
L
-1 °C 300 m 100 ft 210° 210° 3 kt METAR EDHI 081950Z 21003KT 180V270 0300 R23/0400N FZFG VV001 M01/M02 Q1006
20:20
I
-2 °C 2 km - 190° 190° 3 kt METAR EDHI 081920Z 19003KT 150V220 2000 R05/1300D BR FEW003 M02/M02 Q1006
19:50
V
0 °C 8 km - Var Var 2 kt METAR EDHI 081850Z VRB02KT 8000 FEW018 M00/M01 Q1006
19:20
V
1 °C 10 km+ - 020° 020° 3 kt METAR EDHI 081820Z 02003KT 9999 SCT015 SCT018 01/M00 Q1006
18:50
V
1 °C 10 km+ - 350° 350° 3 kt METAR EDHI 081750Z 35003KT 330V030 9999 FEW011 SCT013 01/00 Q1006
18:20
V
1 °C 9 km - 360° 360° 4 kt METAR EDHI 081720Z 36004KT 310V040 9000 FEW005 SCT010 01/00 Q1006
17:50
V
1 °C 9 km - 350° 350° 4 kt METAR EDHI 081650Z 35004KT 9000 FEW006 SCT009 01/01 Q1006
17:20
V
1 °C 9 km 3.700 ft 250° 250° 3 kt METAR EDHI 081620Z 25003KT 210V290 9000 FEW010 SCT012 BKN037 01/01 Q1005
16:50
V
0 °C 10 km+ - 200° 200° 3 kt METAR EDHI 081550Z 20003KT 170V240 9999 SCT013 SCT040 00/00 Q1005
16:20
V
2 °C 10 km+ - 280° 280° 3 kt METAR EDHI 081520Z 28003KT 240V310 9999 SCT013 SCT043 02/01 Q1005
15:50
V
2 °C 10 km+ - 250° 250° 3 kt METAR EDHI 081450Z 25003KT 210V300 9999 SCT009 SCT040 02/01 Q1005
14:50
V
2 °C 10 km+ 4.000 ft Var Var 2 kt METAR EDHI 081350Z VRB02KT 9999 FEW009 SCT032 BKN040 02/01 Q1004
14:20
M
2 °C 10 km+ 1.200 ft 280° 280° 5 kt METAR EDHI 081320Z 28005KT 240V340 9999 FEW008 BKN012 02/01 Q1004
13:50
M
2 °C 9 km 1.500 ft 260° 260° 6 kt METAR EDHI 081250Z 26006KT 9000 -SHRA FEW010CB BKN015 02/01 Q1004
13:20
M
2 °C 10 km+ 1.100 ft 260° 260° 7 kt METAR EDHI 081220Z 26007KT 230V290 9999 SCT009 BKN011 02/01 Q1004
12:50
M
2 °C 10 km+ 1.100 ft 270° 270° 5 kt METAR EDHI 081150Z 27005KT 9999 SCT009 BKN011 02/01 Q1004
12:20
I
2 °C 10 km+ 700 ft 270° 270° 6 kt METAR EDHI 081120Z 27006KT 9999 -SHRA BKN007 02/01 Q1004
11:50
I
2 °C 10 km+ 800 ft 270° 270° 9 kt METAR EDHI 081050Z 27009KT 9999 BKN008 02/01 Q1004
11:20
I
2 °C 10 km+ 700 ft 290° 290° 10 kt METAR EDHI 081020Z 29010KT 270V340 9999 SCT005 BKN007 02/01 Q1004
10:50
L
2 °C 10 km+ 300 ft 270° 270° 7 kt METAR EDHI 080950Z 27007KT 9999 -SHSNRA BKN003 02/01 Q1004
10:20
L
1 °C 6 km 400 ft 260° 260° 6 kt METAR EDHI 080920Z 26006KT 230V310 6000 -SHSNRA OVC004 01/01 Q1004
09:50
I
1 °C 8 km 500 ft 260° 260° 4 kt METAR EDHI 080850Z 26004KT 8000 -SHSNRA OVC005 01/01 Q1004
09:20
I
1 °C 9 km 500 ft 260° 260° 6 kt METAR EDHI 080820Z 26006KT 9000 -SHSNRA OVC005 01/01 Q1004
08:50
I
1 °C 9 km 500 ft 250° 250° 6 kt METAR EDHI 080750Z 25006KT 9000 -SHSNRA OVC005 01/01 Q1004
08:20
I
1 °C 8 km 500 ft 250° 250° 7 kt METAR EDHI 080720Z 25007KT 8000 -SHSNRA OVC005 01/01 Q1004
07:50
I
1 °C 10 km+ 600 ft 240° 240° 7 kt METAR EDHI 080650Z 24007KT 9999 -SHSN BKN006 01/01 Q1004
07:20
I
1 °C 6 km 600 ft 260° 260° 6 kt METAR EDHI 080620Z 26006KT 6000 -SHSN BKN006 01/01 Q1004
06:50
I
1 °C 10 km+ 700 ft 240° 240° 7 kt METAR EDHI 080550Z 24007KT 9999 BKN007 01/01 Q1003
06:20
I
2 °C 10 km+ 700 ft 240° 240° 10 kt METAR EDHI 080520Z 24010KT 9999 OVC007 02/01 Q1003
05:50
I
2 °C 10 km+ 700 ft 240° 240° 10 kt METAR EDHI 080450Z AUTO 24010KT 9999 // OVC007/// 02/01 Q1003
05:20
I
2 °C 10 km+ 800 ft 250° 250° 10 kt METAR EDHI 080420Z AUTO 25010KT 9999 // OVC008/// 02/01 Q1004
04:50
I
2 °C 10 km+ 800 ft 250° 250° 9 kt METAR EDHI 080350Z AUTO 25009KT 9999 // OVC008/// 02/01 Q1004
04:20
I
2 °C 10 km+ 800 ft 250° 250° 11 kt METAR EDHI 080320Z AUTO 25011KT 9999 // OVC008/// 02/01 Q1004
03:50
I
2 °C 10 km+ 900 ft 240° 240° 8 kt METAR EDHI 080250Z AUTO 24008KT 9999 // SCT007/// BKN009/// OVC044/// 02/01 Q1004
03:20
I
2 °C 8 km 600 ft 240° 240° 9 kt METAR EDHI 080220Z AUTO 24009KT 8000 // BKN006/// OVC015/// 02/01 Q1005
02:50
I
2 °C 7 km 700 ft 230° 230° 9 kt METAR EDHI 080150Z AUTO 23009KT 7000 // OVC007/// 02/01 Q1005
02:20
I
2 °C 10 km+ 800 ft 230° 230° 7 kt METAR EDHI 080120Z AUTO 23007KT 9999 // OVC008/// 02/01 Q1005
01:50
I
2 °C 6 km 700 ft 230° 230° 7 kt METAR EDHI 080050Z AUTO 23007KT 6000 // OVC007/// 02/01 Q1005
01:20
I
1 °C 5 km 600 ft 210° 210° 6 kt METAR EDHI 080020Z AUTO 21006KT 5000 // OVC006/// 01/01 Q1005
00:50
I
1 °C 4,4 km 600 ft 210° 210° 6 kt METAR EDHI 072350Z AUTO 21006KT 4400 // BKN006/// OVC009/// 01/01 Q1006
00:20
I
0 °C 3,7 km 700 ft 190° 190° 5 kt METAR EDHI 072320Z AUTO 19005KT 3700 // FEW002/// OVC007/// 00/00 Q1006

7 décembre 2022

Temps Code Temps Temp. Vue Base cloud Vent METAR/SPECI
23:50
L
0 °C 2,9 km 300 ft 200° 200° 4 kt METAR EDHI 072250Z AUTO 20004KT 2900 // BKN003/// BKN005/// OVC008/// 00/00 Q1007
23:20
I
1 °C 4,3 km 2.800 ft 200° 200° 6 kt METAR EDHI 072220Z AUTO 20006KT 4300 // SCT005/// BKN028/// OVC039/// 01/00 Q1007
22:50
M
1 °C 7 km 1.000 ft 200° 200° 5 kt METAR EDHI 072150Z AUTO 20005KT 7000 // SCT008/// BKN010/// OVC038/// 01/00 Q1007
22:20
V
0 °C 10 km+ 3.900 ft 210° 210° 4 kt METAR EDHI 072120Z AUTO 21004KT 9999 // FEW029/// BKN039/// OVC067/// 00/M00 Q1008
21:50
V
0 °C 10 km+ 4.100 ft 220° 220° 3 kt METAR EDHI 072050Z AUTO 22003KT 180V260 9999 // BKN041/// OVC073/// M00/M00 Q1008
21:20
V
0 °C 10 km+ 5.700 ft 230° 230° 4 kt METAR EDHI 072020Z AUTO 23004KT 9999 // SCT041/// BKN057/// OVC074/// M00/M00 Q1008
20:50
V
0 °C 9 km 5.900 ft 220° 220° 3 kt METAR EDHI 071950Z AUTO 22003KT 9000 // BKN059/// BKN120/// OVC170/// M00/M01 Q1009
20:20
V
0 °C 9 km 6.400 ft 210° 210° 4 kt METAR EDHI 071920Z AUTO 21004KT 9000 // BKN064/// BKN088/// OVC170/// M00/M00 Q1009
19:50
V
1 °C 10 km+ - 240° 240° 4 kt METAR EDHI 071850Z 24004KT CAVOK 01/01 Q1009
19:20
V
0 °C 10 km+ - 240° 240° 3 kt METAR EDHI 071820Z 24003KT CAVOK 00/M01 Q1009
18:50
V
0 °C 10 km+ - 230° 230° 4 kt METAR EDHI 071750Z 23004KT CAVOK 00/M01 Q1009
18:20
V
1 °C 10 km+ - 280° 280° 3 kt METAR EDHI 071720Z 28003KT 220V320 CAVOK 01/M02 Q1010
17:50
V
1 °C 10 km+ - 260° 260° 3 kt METAR EDHI 071650Z 26003KT CAVOK 01/M02 Q1010
17:20
V
2 °C 10 km+ - Var Var 2 kt METAR EDHI 071620Z VRB02KT CAVOK 02/M02 Q1010
16:50
V
3 °C 10 km+ - 300° 300° 3 kt METAR EDHI 071550Z 30003KT 270V340 CAVOK 03/M02 Q1010
16:20
V
3 °C 10 km+ - 310° 310° 4 kt METAR EDHI 071520Z 31004KT CAVOK 03/M02 Q1010
15:50
V
4 °C 10 km+ - 310° 310° 6 kt METAR EDHI 071450Z 31006KT CAVOK 04/M02 Q1010
15:20
V
4 °C 10 km+ - 310° 310° 6 kt METAR EDHI 071420Z 31006KT 280V350 9999 FEW015 04/M01 Q1010
14:50
V
4 °C 10 km+ - 280° 280° 8 kt METAR EDHI 071350Z 28008KT 9999 FEW015 SCT020 04/02 Q1010
14:20
V
4 °C 10 km+ - 280° 280° 9 kt METAR EDHI 071320Z 28009KT 9999 FEW021 04/02 Q1010
13:50
V
5 °C 10 km+ - 270° 270° 10 kt METAR EDHI 071250Z 27010KT CAVOK 05/02 Q1010
13:20
V
4 °C 10 km+ - 260° 260° 9 kt METAR EDHI 071220Z 26009KT CAVOK 04/02 Q1010
12:50
V
4 °C 10 km+ - 270° 270° 9 kt METAR EDHI 071150Z 27009KT CAVOK 04/02 Q1010
12:20
V
4 °C 10 km+ - 270° 270° 10 kt METAR EDHI 071120Z 27010KT CAVOK 04/02 Q1010
11:50
V
3 °C 10 km+ - 270° 270° 9 kt METAR EDHI 071050Z 27009KT 9999 FEW036 03/02 Q1010
11:20
V
3 °C 10 km+ - 270° 270° 9 kt METAR EDHI 071020Z 27009KT 9999 SCT039 03/02 Q1011
10:50
V
3 °C 10 km+ - 270° 270° 9 kt METAR EDHI 070950Z 27009KT 9999 FEW042 03/02 Q1011
10:20
V
2 °C 10 km+ - 260° 260° 6 kt METAR EDHI 070920Z 26006KT CAVOK 02/02 Q1011
09:50
V
2 °C 10 km+ - 260° 260° 4 kt METAR EDHI 070850Z 26004KT CAVOK 02/01 Q1011
09:20
V
2 °C 10 km+ - 250° 250° 5 kt METAR EDHI 070820Z 25005KT 230V300 CAVOK 02/01 Q1011
08:50
V
1 °C 10 km+ - 250° 250° 6 kt METAR EDHI 070750Z 25006KT CAVOK 01/01 Q1011
08:20
V
1 °C 10 km+ - 250° 250° 5 kt METAR EDHI 070720Z 25005KT 9999 FEW033 01/01 Q1010
07:50
V
1 °C 10 km+ - 250° 250° 6 kt METAR EDHI 070650Z 25006KT 9999 FEW040 01/00 Q1010
07:20
V
1 °C 10 km+ - 270° 270° 6 kt METAR EDHI 070620Z 27006KT 9999 FEW033 01/00 Q1010
06:50
V
1 °C 10 km+ - 270° 270° 6 kt METAR EDHI 070550Z 27006KT CAVOK 01/00 Q1010
06:20
V
1 °C 10 km+ - 260° 260° 6 kt METAR EDHI 070520Z 26006KT CAVOK 01/00 Q1010
05:50
V
2 °C 10 km+ 8.800 ft 270° 270° 6 kt METAR EDHI 070450Z AUTO 27006KT 240V300 9999 // OVC088/// 02/01 Q1011

Nous et des tiers suivons ton comportement Internet sur notre site Web à l'aide de cookies. Si tu continues, nous supposons que tu es d'accord avec notre Politique en matière de cookies.